Time;durP1;ratioP1;P1;durP2;ratioP2;P2;SDS_P1;SDS_P2;PMS_P1;PMS_P2;Temp;Humidity;BMP_temperature;BMP_pressure;BME280_temperature;BME280_humidity;BME280_pressure;Samples;Min_cycle;Max_cycle;Signal;HPM_P1;HPM_P2
2021/12/06 00:00:13;;;;;;;10.68;6.13;;;4.10;99.90;;;;;;5054779;28;20028;-85
2021/12/06 00:02:39;;;;;;;8.60;4.90;;;;;;;;;;5051420;28;20514;-84
2021/12/06 00:05:05;;;;;;;8.65;4.47;;;;;;;;;;5067023;28;20036;-86
2021/12/06 00:07:32;;;;;;;7.03;4.50;;;;;;;;;;5067360;28;20033;-86
2021/12/06 00:09:58;;;;;;;8.57;4.72;;;;;;;;;;5066311;28;20032;-86
2021/12/06 00:12:24;;;;;;;7.20;4.60;;;;;;;;;;5052477;28;20020;-85
2021/12/06 00:14:50;;;;;;;6.80;4.20;;;;;;;;;;5067568;28;20048;-85
2021/12/06 00:17:19;;;;;;;10.18;4.03;;;3.80;99.90;;;;;;5068101;28;20013;-89
2021/12/06 00:19:45;;;;;;;7.90;4.38;;;3.80;99.90;;;;;;5050452;28;20025;-87
2021/12/06 00:22:14;;;;;;;11.00;5.50;;;3.80;99.90;;;;;;5053661;28;20017;-85
2021/12/06 00:24:41;;;;;;;9.45;4.55;;;;;;;;;;5066573;28;20080;-87
2021/12/06 00:27:07;;;;;;;9.07;4.95;;;;;;;;;;5065206;28;20021;-87
2021/12/06 00:29:33;;;;;;;10.20;5.00;;;;;;;;;;5058760;28;20040;-89
2021/12/06 00:31:59;;;;;;;12.38;5.80;;;;;;;;;;5051082;28;20084;-85
2021/12/06 00:34:31;;;;;;;9.85;5.47;;;;;;;;;;5050384;28;20059;-88
2021/12/06 00:39:41;;;;;;;8.95;5.63;;;3.70;99.90;;;;;;5059127;28;20091;-86
2021/12/06 00:42:07;;;;;;;17.10;6.30;;;3.60;99.90;;;;;;5039987;28;20116;-87
2021/12/06 00:44:33;;;;;;;9.98;6.00;;;3.60;99.90;;;;;;5048883;28;20044;-87
2021/12/06 00:46:59;;;;;;;14.65;6.82;;;3.20;99.90;;;;;;5042922;28;20116;-85
2021/12/06 00:49:24;;;;;;;11.93;6.55;;;3.30;99.90;;;;;;5039956;28;20032;-87
2021/12/06 00:51:50;;;;;;;12.75;6.45;;;;;;;;;;5039401;28;20029;-87
2021/12/06 00:54:19;;;;;;;10.05;5.95;;;3.40;99.90;;;;;;5042278;28;20025;-88
2021/12/06 00:56:45;;;;;;;12.50;7.35;;;3.40;99.90;;;;;;5045693;28;20032;-88
2021/12/06 00:59:10;;;;;;;13.38;7.93;;;3.40;99.90;;;;;;5044179;28;20049;-85
2021/12/06 01:01:36;;;;;;;12.95;8.27;;;3.40;99.90;;;;;;5042576;28;20063;-88
2021/12/06 01:04:03;;;;;;;13.32;8.48;;;3.30;99.90;;;;;;5044349;28;20029;-85
2021/12/06 01:06:31;;;;;;;14.77;9.25;;;;;;;;;;5034877;28;20037;-85
2021/12/06 01:08:57;;;;;;;13.70;8.00;;;;;;;;;;5046429;28;20379;-85
2021/12/06 01:11:23;;;;;;;12.73;7.22;;;;;;;;;;5055012;28;20036;-84
2021/12/06 01:13:49;;;;;;;12.32;7.80;;;;;;;;;;5055753;28;20045;-86
2021/12/06 01:16:14;;;;;;;13.95;8.38;;;3.20;99.90;;;;;;5039269;28;20043;-85
2021/12/06 01:18:40;;;;;;;13.88;8.20;;;;;;;;;;5044173;28;21563;-85
2021/12/06 01:23:46;;;;;;;14.35;8.32;;;;;;;;;;5060490;28;20036;-87
2021/12/06 01:29:13;;;;;;;15.30;9.00;;;;;;;;;;5063167;28;20133;-88
2021/12/06 01:39:08;;;;;;;15.98;9.15;;;3.00;99.90;;;;;;5046942;28;20045;-86
2021/12/06 01:39:39;;;;;;;16.20;9.30;;;;;;;;;;5054619;28;20052;-87
2021/12/06 01:42:07;;;;;;;13.32;8.98;;;2.90;99.90;;;;;;5048877;28;20068;-85
2021/12/06 01:44:44;;;;;;;16.73;9.40;;;2.90;99.90;;;;;;5057886;28;20055;-85
2021/12/06 01:47:15;;;;;;;16.30;8.98;;;3.00;99.90;;;;;;5047939;28;20033;-85
2021/12/06 01:49:43;;;;;;;;;;;3.00;99.90;;;;;;5045167;28;20048;-87
2021/12/06 01:52:18;;;;;;;13.73;8.05;;;3.00;99.90;;;;;;5045992;28;21464;-83
2021/12/06 01:54:44;;;;;;;15.80;8.70;;;3.00;99.90;;;;;;5049763;28;20115;-85
2021/12/06 01:57:10;;;;;;;15.73;9.20;;;;;;;;;;5045625;28;20037;-83
2021/12/06 01:59:38;;;;;;;16.70;8.85;;;2.90;99.90;;;;;;5066146;28;20070;-86
2021/12/06 02:02:04;;;;;;;13.68;8.23;;;2.90;99.90;;;;;;5067357;28;20063;-86
2021/12/06 02:04:32;;;;;;;12.45;8.52;;;2.90;99.90;;;;;;5052071;28;20040;-82
2021/12/06 02:06:59;;;;;;;13.32;8.13;;;2.80;99.90;;;;;;5052721;28;20021;-84
2021/12/06 02:09:27;;;;;;;15.32;8.68;;;;;;;;;;5045215;28;20463;-84
2021/12/06 02:11:57;;;;;;;15.75;8.68;;;2.80;99.90;;;;;;5043653;28;20025;-82
2021/12/06 02:17:08;;;;;;;14.85;8.90;;;2.70;99.90;;;;;;5068011;28;20033;-82
2021/12/06 02:19:39;;;;;;;14.43;8.60;;;2.60;99.90;;;;;;5045289;28;20033;-82
2021/12/06 02:22:07;;;;;;;16.30;9.30;;;2.60;99.90;;;;;;5049099;28;20033;-84
2021/12/06 02:24:35;;;;;;;16.67;9.60;;;;;;;;;;5047997;28;20016;-86
2021/12/06 02:27:01;;;;;;;14.40;9.05;;;2.50;99.90;;;;;;5063763;28;20074;-84
2021/12/06 02:29:28;;;;;;;14.68;9.40;;;2.60;99.90;;;;;;5048432;28;20029;-86
2021/12/06 02:31:54;;;;;;;18.10;9.77;;;;;;;;;;5060114;28;20017;-86
2021/12/06 02:34:20;;;;;;;15.00;9.35;;;;;;;;;;5061419;28;20037;-83
2021/12/06 02:36:46;;;;;;;15.50;9.52;;;;;;;;;;5046158;28;20121;-82
2021/12/06 02:39:20;;;;;;;16.58;9.18;;;2.60;99.90;;;;;;5066276;28;20030;-85
2021/12/06 02:41:48;;;;;;;16.08;9.27;;;2.60;99.90;;;;;;5045136;28;20033;-83
2021/12/06 02:44:18;;;;;;;13.75;8.52;;;2.60;99.90;;;;;;5047253;28;20036;-83
2021/12/06 02:46:44;;;;;;;16.63;9.10;;;;;;;;;;5039102;28;20035;-82
2021/12/06 02:49:10;;;;;;;14.90;9.00;;;;;;;;;;5063818;28;20044;-83
2021/12/06 02:51:36;;;;;;;16.98;8.85;;;;;;;;;;5055908;28;20546;-81
2021/12/06 02:54:02;;;;;;;13.60;8.00;;;;;;;;;;5065304;28;20032;-82
2021/12/06 02:56:49;;;;;;;17.50;9.90;;;2.60;99.90;;;;;;5064104;28;20098;-85
2021/12/06 02:59:16;;;;;;;13.60;8.68;;;;;;;;;;5045876;28;20075;-82
2021/12/06 03:01:46;;;;;;;13.30;8.57;;;2.60;99.90;;;;;;5061616;28;20029;-82
2021/12/06 03:04:12;;;;;;;14.63;9.18;;;;;;;;;;5043819;28;20064;-82
2021/12/06 03:06:40;;;;;;;13.23;8.05;;;2.50;99.90;;;;;;5057025;28;20095;-82
2021/12/06 03:09:18;;;;;;;14.85;8.15;;;2.50;99.90;;;;;;5048497;28;20035;-85
2021/12/06 03:11:51;;;;;;;17.38;9.25;;;2.50;99.90;;;;;;5049633;28;20033;-83
2021/12/06 03:14:22;;;;;;;14.15;8.38;;;2.60;99.90;;;;;;5046929;28;20037;-84
2021/12/06 03:16:48;;;;;;;14.85;9.10;;;2.50;99.90;;;;;;5045821;28;20040;-81
2021/12/06 03:19:14;;;;;;;14.85;8.30;;;;;;;;;;5048246;28;20025;-86
2021/12/06 03:21:41;;;;;;;13.70;7.97;;;;;;;;;;5061424;28;20025;-82
2021/12/06 03:24:07;;;;;;;13.25;8.20;;;;;;;;;;5046154;28;20048;-84
2021/12/06 03:26:33;;;;;;;12.98;7.72;;;;;;;;;;5044970;28;20033;-85
2021/12/06 03:29:00;;;;;;;13.98;8.45;;;2.60;99.90;;;;;;5056881;28;20159;-84
2021/12/06 03:31:26;;;;;;;12.63;7.85;;;1.90;99.90;;;;;;5062018;28;20029;-81
2021/12/06 03:33:54;;;;;;;14.38;8.27;;;5.70;99.90;;;;;;5042009;28;20048;-85
2021/12/06 03:36:22;;;;;;;14.40;7.88;;;2.60;99.90;;;;;;5044133;28;20064;-81
2021/12/06 03:38:48;;;;;;;14.25;9.02;;;2.50;99.90;;;;;;5047508;28;20095;-84
2021/12/06 03:41:16;;;;;;;14.85;8.45;;;4.30;99.90;;;;;;5044619;28;20029;-88
2021/12/06 03:43:42;;;;;;;13.27;7.93;;;4.50;99.90;;;;;;5049725;28;20033;-83
2021/12/06 03:46:10;;;;;;;15.05;8.18;;;2.40;99.90;;;;;;5047960;28;20106;-84
2021/12/06 03:48:36;;;;;;;16.42;9.07;;;;;;;;;;5032277;28;20037;-83
2021/12/06 03:51:02;;;;;;;13.77;8.63;;;;;;;;;;5043772;28;20029;-83
2021/12/06 03:53:28;;;;;;;14.52;8.10;;;2.60;99.90;;;;;;5045252;28;20056;-82
2021/12/06 03:55:54;;;;;;;19.52;9.52;;;2.70;99.90;;;;;;5043733;28;20033;-84
2021/12/06 03:58:20;;;;;;;14.85;8.52;;;2.50;99.90;;;;;;5048918;28;20033;-86
2021/12/06 04:00:49;;;;;;;15.23;9.13;;;2.70;99.90;;;;;;5052581;28;20022;-83
2021/12/06 04:03:16;;;;;;;16.05;8.98;;;2.40;99.90;;;;;;5046553;28;20026;-86
2021/12/06 04:05:43;;;;;;;16.40;9.25;;;2.70;99.90;;;;;;5035663;28;20060;-85
2021/12/06 04:08:09;;;;;;;15.20;9.65;;;;;;;;;;5043405;28;20088;-82
2021/12/06 04:10:35;;;;;;;14.80;9.18;;;;;;;;;;5060620;28;20051;-81
2021/12/06 04:13:01;;;;;;;16.48;9.05;;;2.80;99.90;;;;;;5043573;28;20045;-85
2021/12/06 04:15:31;;;;;;;17.77;9.52;;;2.70;99.90;;;;;;5065145;28;20029;-81
2021/12/06 04:17:57;;;;;;;15.40;9.10;;;2.80;99.90;;;;;;5037794;28;20025;-82
2021/12/06 04:20:24;;;;;;;17.30;9.15;;;2.80;99.90;;;;;;5042144;28;20036;-80
2021/12/06 04:22:50;;;;;;;17.80;9.40;;;2.80;99.90;;;;;;5045160;28;20021;-83
2021/12/06 04:25:18;;;;;;;20.35;10.57;;;;;;;;;;5043146;28;20035;-82
2021/12/06 04:27:50;;;;;;;21.70;10.02;;;;;;;;;;5056261;28;20025;-85
2021/12/06 04:30:17;;;;;;;21.75;10.43;;;;;;;;;;5046883;28;20117;-81
2021/12/06 04:32:43;;;;;;;16.73;9.50;;;;;;;;;;5040997;28;20032;-82
2021/12/06 04:35:09;;;;;;;18.52;9.68;;;2.80;99.90;;;;;;5049749;28;20043;-81
2021/12/06 04:37:35;;;;;;;18.85;10.57;;;;;;;;;;5037797;28;20017;-84
2021/12/06 04:40:01;;;;;;;19.60;9.05;;;;;;;;;;5037606;28;20497;-82
2021/12/06 04:42:27;;;;;;;20.67;10.10;;;2.80;99.90;;;;;;5056650;28;20036;-84
2021/12/06 04:44:53;;;;;;;20.65;9.40;;;;;;;;;;5039649;28;20024;-82
2021/12/06 04:47:18;;;;;;;20.13;9.90;;;2.70;99.90;;;;;;5040448;28;20474;-82
2021/12/06 04:49:44;;;;;;;17.98;9.57;;;;;;;;;;5038452;28;20024;-82
2021/12/06 04:52:12;;;;;;;20.02;9.68;;;2.70;99.90;;;;;;5044762;28;20053;-84
2021/12/06 04:54:43;;;;;;;17.40;9.48;;;2.70;99.90;;;;;;5043962;28;20033;-83
2021/12/06 04:57:35;;;;;;;18.58;9.13;;;2.60;99.90;;;;;;5059483;28;20051;-82
2021/12/06 05:00:24;;;;;;;18.80;9.27;;;2.60;99.90;;;;;;5028606;28;20032;-80
2021/12/06 05:02:49;;;;;;;16.95;8.82;;;4.00;99.90;;;;;;5040669;28;20078;-83
2021/12/06 05:05:23;;;;;;;20.52;10.10;;;2.70;99.90;;;;;;5039600;28;20637;-82
2021/12/06 05:07:56;;;;;;;17.58;9.10;;;3.10;99.90;;;;;;5037516;28;21586;-84
2021/12/06 05:10:22;;;;;;;26.30;9.93;;;2.70;99.90;;;;;;5029050;28;20432;-80
2021/12/06 05:12:48;;;;;;;18.83;9.75;;;;;;;;;;5031950;28;20103;-82
2021/12/06 05:15:14;;;;;;;18.90;9.88;;;2.70;99.90;;;;;;5049457;28;20053;-85
2021/12/06 05:17:40;;;;;;;18.52;9.82;;;2.70;99.90;;;;;;5042592;28;20021;-85
2021/12/06 05:20:07;;;;;;;18.40;10.23;;;2.70;99.90;;;;;;5042777;28;20477;-84
2021/12/06 05:22:34;;;;;;;18.73;9.30;;;2.80;99.90;;;;;;5056680;28;20021;-86
2021/12/06 05:25:00;;;;;;;18.88;8.93;;;;;;;;;;5039009;28;20521;-88
2021/12/06 05:27:29;;;;;;;15.23;8.48;;;2.90;99.90;;;;;;5041632;28;20110;-86
2021/12/06 05:30:01;;;;;;;16.17;7.80;;;2.90;99.90;;;;;;5040656;28;20124;-87
2021/12/06 05:32:30;;;;;;;14.10;7.80;;;;;;;;;;5041334;28;20041;-86
2021/12/06 05:35:03;;;;;;;18.35;10.63;;;;;;;;;;5055267;28;20033;-86
2021/12/06 05:37:30;;;;;;;14.02;7.97;;;2.90;99.90;;;;;;5037097;28;20084;-88
2021/12/06 05:39:59;;;;;;;15.52;8.30;;;2.90;99.90;;;;;;5043616;28;20031;-88
2021/12/06 05:42:26;;;;;;;15.85;8.15;;;;;;;;;;5044082;28;20025;-88
2021/12/06 05:44:52;;;;;;;19.20;9.00;;;3.00;99.90;;;;;;5046457;28;20029;-84
2021/12/06 05:47:18;;;;;;;15.45;8.70;;;;;;;;;;5040325;28;20036;-87
2021/12/06 05:49:44;;;;;;;17.15;8.60;;;;;;;;;;5030741;28;20081;-84
2021/12/06 05:52:10;;;;;;;15.65;8.52;;;;;;;;;;5057342;28;20033;-87
2021/12/06 05:54:37;;;;;;;14.75;7.85;;;3.00;99.90;;;;;;5050707;28;20022;-88
2021/12/06 05:57:05;;;;;;;18.48;9.27;;;3.00;99.90;;;;;;5037258;28;20043;-86
2021/12/06 05:59:31;;;;;;;15.63;8.93;;;;;;;;;;5036424;28;20040;-82
2021/12/06 06:01:57;;;;;;;16.90;8.75;;;;;;;;;;5051074;28;20025;-85
2021/12/06 06:04:26;;;;;;;18.73;9.25;;;3.00;99.90;;;;;;5047477;28;20021;-85
2021/12/06 06:06:52;;;;;;;16.88;8.63;;;3.00;99.90;;;;;;5042566;28;20029;-86
2021/12/06 06:09:20;;;;;;;18.08;8.88;;;3.10;99.90;;;;;;5038385;28;20041;-86
2021/12/06 06:11:49;;;;;;;17.58;8.13;;;3.10;99.90;;;;;;5039643;28;20540;-85
2021/12/06 06:14:16;;;;;;;17.35;8.93;;;3.10;99.90;;;;;;5040951;28;20035;-84
2021/12/06 06:16:50;;;;;;;17.42;9.00;;;5.50;99.90;;;;;;5037304;28;20032;-81
2021/12/06 06:19:19;;;;;;;18.77;9.23;;;3.00;99.90;;;;;;5046013;28;20029;-84
2021/12/06 06:21:45;;;;;;;18.50;9.55;;;;;;;;;;5027153;28;20063;-83
2021/12/06 06:24:11;;;;;;;23.63;9.50;;;;;;;;;;5055885;28;20593;-84
2021/12/06 06:26:37;;;;;;;22.30;9.98;;;;;;;;;;5042926;28;20049;-86
2021/12/06 06:29:03;;;;;;;22.50;10.00;;;;;;;;;;5054733;28;20476;-87
2021/12/06 06:31:29;;;;;;;21.58;10.90;;;;;;;;;;5043126;28;20024;-87
2021/12/06 06:33:55;;;;;;;23.02;10.48;;;;;;;;;;5045958;28;20047;-86
2021/12/06 06:36:21;;;;;;;25.50;11.43;;;;;;;;;;5046877;28;20037;-86
2021/12/06 06:38:47;;;;;;;21.90;10.07;;;;;;;;;;5046790;28;20025;-87
2021/12/06 06:41:13;;;;;;;22.52;10.88;;;;;;;;;;5044312;28;20491;-89
2021/12/06 06:43:39;;;;;;;22.42;9.25;;;;;;;;;;5044702;28;20031;-84
2021/12/06 06:46:06;;;;;;;20.98;10.30;;;3.10;99.90;;;;;;5060664;28;20033;-83
2021/12/06 06:48:33;;;;;;;21.63;9.52;;;3.20;99.90;;;;;;5050730;28;20045;-82
2021/12/06 06:50:59;;;;;;;24.02;11.00;;;;;;;;;;5050854;28;20033;-85
2021/12/06 06:53:26;;;;;;;27.17;11.27;;;;;;;;;;5048101;28;20469;-86
2021/12/06 06:55:53;;;;;;;28.40;12.57;;;3.20;99.90;;;;;;5049423;28;20120;-83
2021/12/06 06:58:19;;;;;;;26.20;12.05;;;;;;;;;;5053366;28;20092;-86
2021/12/06 07:00:45;;;;;;;26.15;12.05;;;;;;;;;;5059779;28;20032;-87
2021/12/06 07:03:11;;;;;;;29.13;12.52;;;;;;;;;;5059778;28;20101;-86
2021/12/06 07:05:38;;;;;;;25.83;12.00;;;3.30;99.90;;;;;;5047122;28;20033;-87
2021/12/06 07:08:04;;;;;;;23.63;11.02;;;3.30;99.90;;;;;;5040256;28;20060;-87
2021/12/06 07:10:30;;;;;;;31.73;13.27;;;;;;;;;;5049892;28;20315;-86
2021/12/06 07:12:59;;;;;;;27.45;12.27;;;3.40;99.90;;;;;;5044425;28;20037;-88
2021/12/06 07:15:28;;;;;;;26.98;12.57;;;3.40;99.90;;;;;;5043893;28;20096;-88
2021/12/06 07:17:55;;;;;;;30.30;13.40;;;;;;;;;;5043125;28;20116;-86
2021/12/06 07:20:22;;;;;;;29.02;13.40;;;3.40;99.90;;;;;;5041841;28;20056;-85
2021/12/06 07:22:51;;;;;;;27.52;13.60;;;3.40;99.90;;;;;;5036500;28;20037;-88
2021/12/06 07:25:19;;;;;;;31.05;13.57;;;3.50;99.90;;;;;;5039839;28;20029;-88
2021/12/06 07:27:45;;;;;;;26.58;13.43;;;3.50;99.90;;;;;;5021617;28;20037;-85
2021/12/06 07:30:13;;;;;;;32.05;13.30;;;3.50;99.90;;;;;;5037810;28;20057;-88
2021/12/06 07:32:40;;;;;;;28.55;13.38;;;3.50;99.90;;;;;;5046788;28;20044;-88
2021/12/06 07:35:07;;;;;;;28.35;14.07;;;;;;;;;;5042613;28;20048;-88
2021/12/06 07:37:33;;;;;;;28.65;13.57;;;;;;;;;;5039961;28;20036;-86
2021/12/06 07:39:59;;;;;;;25.48;13.13;;;;;;;;;;5038611;28;20025;-86
2021/12/06 07:42:25;;;;;;;27.00;13.13;;;;;;;;;;5049183;28;20402;-88
2021/12/06 07:44:52;;;;;;;33.78;15.50;;;3.50;99.90;;;;;;5046841;28;20041;-85
2021/12/06 07:47:18;;;;;;;30.40;15.15;;;;;;;;;;5048197;28;20021;-83
2021/12/06 07:49:45;;;;;;;37.85;17.80;;;;;;;;;;5049097;28;20032;-83
2021/12/06 07:52:11;;;;;;;41.58;18.70;;;3.50;99.90;;;;;;5072912;28;20082;-87
2021/12/06 07:54:38;;;;;;;47.88;20.88;;;3.50;99.90;;;;;;5059033;28;20689;-87
2021/12/06 07:57:05;;;;;;;43.88;19.95;;;3.50;99.90;;;;;;5061352;28;20106;-85
2021/12/06 07:59:34;;;;;;;48.53;21.40;;;;;;;;;;5042143;28;20027;-83
2021/12/06 08:02:05;;;;;;;45.42;20.45;;;3.50;99.90;;;;;;5048140;28;20024;-85
2021/12/06 08:04:31;;;;;;;42.05;18.33;;;;;;;;;;5046288;28;20021;-82
2021/12/06 08:06:57;;;;;;;31.38;14.27;;;;;;;;;;5046910;28;20059;-85
2021/12/06 08:09:23;;;;;;;32.90;14.73;;;;;;;;;;5049015;28;20033;-85
2021/12/06 08:11:49;;;;;;;34.60;14.73;;;;;;;;;;5060717;28;20033;-88
2021/12/06 08:14:15;;;;;;;31.90;13.75;;;;;;;;;;5045451;28;20097;-85
2021/12/06 08:16:43;;;;;;;30.35;14.25;;;3.80;99.90;;;;;;5037750;28;20071;-85
2021/12/06 08:19:10;;;;;;;29.63;13.68;;;;;;;;;;5040139;28;20033;-85
2021/12/06 08:21:36;;;;;;;30.85;14.32;;;;;;;;;;5035898;28;20025;-85
2021/12/06 08:24:03;;;;;;;33.05;15.07;;;3.70;99.90;;;;;;5051066;28;20056;-88
2021/12/06 08:26:34;;;;;;;34.45;14.77;;;3.70;99.90;;;;;;5036323;28;20078;-87
2021/12/06 08:29:02;;;;;;;32.03;15.07;;;3.70;99.90;;;;;;5028948;28;20124;-87
2021/12/06 08:31:29;;;;;;;29.65;14.25;;;;;;;;;;5029302;28;20033;-87
2021/12/06 08:33:55;;;;;;;35.53;15.35;;;3.80;99.90;;;;;;5034105;28;20041;-85
2021/12/06 08:36:22;;;;;;;38.17;15.48;;;3.80;99.90;;;;;;5039789;28;20029;-84
2021/12/06 08:38:49;;;;;;;31.38;14.77;;;3.90;99.90;;;;;;5043892;28;20021;-86
2021/12/06 08:41:18;;;;;;;30.27;14.77;;;3.90;99.90;;;;;;5045778;28;20051;-88
2021/12/06 08:43:46;;;;;;;32.13;14.95;;;3.80;99.90;;;;;;5054872;28;20391;-87
2021/12/06 08:46:34;;;;;;;37.75;15.93;;;3.90;99.90;;;;;;5037113;28;20025;-88
2021/12/06 08:49:05;;;;;;;37.33;16.40;;;3.90;99.90;;;;;;5056010;28;22253;-85
2021/12/06 08:51:47;;;;;;;38.28;16.60;;;3.90;99.90;;;;;;5055941;28;20040;-89
2021/12/06 08:54:22;;;;;;;37.67;15.82;;;3.90;99.90;;;;;;5063289;28;20060;-85
2021/12/06 08:56:49;;;;;;;37.72;15.27;;;3.70;99.90;;;;;;5052805;28;20044;-87
2021/12/06 08:59:15;;;;;;;43.80;17.33;;;3.40;99.90;;;;;;5061411;28;20024;-89
2021/12/06 09:01:41;;;;;;;31.83;13.95;;;3.50;99.90;;;;;;5050970;28;20096;-87
2021/12/06 09:04:12;;;;;;;30.55;14.10;;;3.60;99.90;;;;;;5052903;28;20038;-86
2021/12/06 09:06:41;;;;;;;31.30;14.63;;;3.60;99.90;;;;;;5056890;28;20071;-84
2021/12/06 09:09:09;;;;;;;29.90;13.63;;;;;;;;;;5072873;28;20041;-85
2021/12/06 09:11:36;;;;;;;29.70;12.95;;;3.40;99.90;;;;;;5059242;28;20030;-85
2021/12/06 09:14:03;;;;;;;30.25;13.57;;;;;;;;;;5060609;28;20112;-88
2021/12/06 09:16:29;;;;;;;29.42;12.95;;;;;;;;;;5063051;28;20028;-86
2021/12/06 09:18:55;;;;;;;31.55;13.88;;;;;;;;;;5062386;28;20024;-87
2021/12/06 09:21:21;;;;;;;27.90;12.73;;;;;;;;;;5063573;28;20044;-85
2021/12/06 09:23:48;;;;;;;34.83;13.00;;;;;;;;;;5058239;28;20039;-83
2021/12/06 09:26:14;;;;;;;35.25;12.57;;;;;;;;;;5064840;28;20020;-84
2021/12/06 09:28:40;;;;;;;33.35;12.57;;;;;;;;;;5060969;28;20049;-87
2021/12/06 09:31:07;;;;;;;32.00;12.38;;;;;;;;;;5066658;28;20013;-83
2021/12/06 09:33:37;;;;;;;29.30;12.45;;;3.10;99.90;;;;;;5078640;28;20237;-85
2021/12/06 09:36:05;;;;;;;26.98;11.25;;;3.10;99.90;;;;;;5063465;28;20036;-85
2021/12/06 09:38:38;;;;;;;25.75;11.57;;;;;;;;;;5062432;28;20040;-84
2021/12/06 09:41:10;;;;;;;25.83;11.20;;;;;;;;;;5062390;28;20045;-88
2021/12/06 09:43:39;;;;;;;24.05;11.35;;;;;;;;;;5065653;28;20087;-88
2021/12/06 09:46:06;;;;;;;25.95;10.70;;;3.50;99.90;;;;;;5063828;28;20041;-86
2021/12/06 09:48:33;;;;;;;24.90;10.25;;;;;;;;;;5061039;28;20020;-86
2021/12/06 09:51:05;;;;;;;25.10;10.82;;;3.40;99.90;;;;;;5059798;28;22782;-83
2021/12/06 09:53:34;;;;;;;24.30;9.88;;;3.20;99.90;;;;;;5059619;28;20033;-85
2021/12/06 09:56:06;;;;;;;23.52;9.73;;;3.30;99.90;;;;;;5060427;28;20124;-84
2021/12/06 09:58:33;;;;;;;22.77;9.88;;;3.30;99.90;;;;;;5061905;28;20033;-84
2021/12/06 10:01:04;;;;;;;22.10;9.98;;;3.40;99.90;;;;;;5067082;28;20064;-87
2021/12/06 10:03:32;;;;;;;23.70;10.05;;;;;;;;;;5063215;28;20033;-82
2021/12/06 10:06:02;;;;;;;29.77;10.13;;;;;;;;;;5065248;28;20556;-87
2021/12/06 10:08:37;;;;;;;26.40;10.52;;;3.50;99.90;;;;;;5062949;28;20025;-85
2021/12/06 10:11:05;;;;;;;22.85;10.13;;;;;;;;;;5058796;28;20391;-85
2021/12/06 10:13:31;;;;;;;17.05;8.38;;;;;;;;;;5054781;28;20029;-85
2021/12/06 10:15:57;;;;;;;17.02;7.82;;;;;;;;;;5057646;28;20025;-86
2021/12/06 10:18:23;;;;;;;15.20;7.25;;;3.80;99.90;;;;;;5055389;28;20470;-85
2021/12/06 10:20:49;;;;;;;14.02;6.70;;;3.80;99.90;;;;;;5051754;28;20036;-85
2021/12/06 10:23:17;;;;;;;15.85;7.25;;;4.00;99.90;;;;;;5054533;28;20441;-85
2021/12/06 10:25:46;;;;;;;13.95;7.07;;;4.10;99.90;;;;;;5049971;28;20037;-87
2021/12/06 10:28:15;;;;;;;12.82;6.15;;;4.20;99.90;;;;;;5051112;28;20485;-86
2021/12/06 10:30:44;;;;;;;13.45;6.45;;;4.20;99.90;;;;;;5069434;28;20032;-87
2021/12/06 10:33:20;;;;;;;10.75;5.75;;;5.20;99.90;;;;;;5069297;28;20096;-86
2021/12/06 10:35:50;;;;;;;11.02;6.03;;;4.50;99.90;;;;;;5051762;28;20115;-85
2021/12/06 10:38:27;;;;;;;12.02;6.25;;;4.50;99.90;;;;;;5052842;28;20052;-87
2021/12/06 10:41:17;;;;;;;13.15;6.63;;;4.30;99.90;;;;;;5059808;28;20029;-85
2021/12/06 10:44:04;;;;;;;14.55;6.32;;;4.20;99.90;;;;;;5053080;28;20482;-83
2021/12/06 10:46:31;;;;;;;17.27;7.72;;;6.30;99.90;;;;;;5055329;28;20040;-85
2021/12/06 10:49:02;;;;;;;18.27;8.90;;;4.20;99.90;;;;;;5051839;28;20036;-83
2021/12/06 10:51:29;;;;;;;14.95;8.15;;;4.50;99.90;;;;;;5048787;28;20041;-83
2021/12/06 10:54:07;;;;;;;22.02;10.07;;;4.50;99.90;;;;;;5047346;28;20034;-85
2021/12/06 10:56:47;;;;;;;14.00;7.10;;;4.70;99.90;;;;;;5045891;28;20032;-89
2021/12/06 10:59:13;;;;;;;12.60;6.68;;;;;;;;;;5051217;28;20033;-84
2021/12/06 11:01:39;;;;;;;14.15;6.50;;;;;;;;;;5048016;28;20029;-85
2021/12/06 11:04:07;;;;;;;13.68;6.38;;;;;;;;;;5047413;28;20114;-84
2021/12/06 11:06:41;;;;;;;12.95;6.55;;;;;;;;;;5048311;28;20033;-85
2021/12/06 11:09:08;;;;;;;15.20;6.35;;;4.60;99.90;;;;;;5051071;28;20025;-88
2021/12/06 11:11:38;;;;;;;13.73;6.55;;;4.70;99.90;;;;;;5049850;28;20466;-85
2021/12/06 11:14:06;;;;;;;13.57;7.00;;;4.80;99.90;;;;;;5046202;28;20040;-84
2021/12/06 11:16:39;;;;;;;14.77;7.20;;;7.80;99.90;;;;;;5050543;28;20066;-84
2021/12/06 11:19:16;;;;;;;13.98;6.43;;;4.80;99.90;;;;;;5046466;28;20117;-84
2021/12/06 11:21:46;;;;;;;16.58;6.57;;;4.90;99.90;;;;;;5042980;28;20554;-84
2021/12/06 11:24:31;;;;;;;12.50;6.72;;;5.00;99.90;;;;;;5062358;28;20509;-84
2021/12/06 11:27:26;;;;;;;15.23;7.13;;;4.90;99.90;;;;;;5046441;28;20032;-88
2021/12/06 11:29:57;;;;;;;14.55;7.03;;;4.90;99.90;;;;;;5045833;28;20104;-84
2021/12/06 11:32:31;;;;;;;14.68;7.00;;;5.00;99.90;;;;;;5044681;28;20033;-85
2021/12/06 11:35:22;;;;;;;14.85;7.47;;;5.00;99.90;;;;;;5054694;28;20502;-84
2021/12/06 11:37:54;;;;;;;14.13;7.15;;;4.90;99.90;;;;;;5053170;28;20029;-85
2021/12/06 11:40:29;;;;;;;10.98;6.07;;;5.00;99.90;;;;;;5057008;28;20379;-88
2021/12/06 11:43:08;;;;;;;13.88;6.93;;;5.10;99.90;;;;;;5049799;28;20021;-82
2021/12/06 11:45:50;;;;;;;14.32;6.13;;;5.00;99.90;;;;;;5061514;28;20037;-85
2021/12/06 11:48:38;;;;;;;12.45;5.88;;;5.10;99.90;;;;;;5050659;28;20025;-87
2021/12/06 11:51:15;;;;;;;7.97;4.75;;;5.20;99.90;;;;;;5052363;28;20037;-87
2021/12/06 11:53:44;;;;;;;8.45;4.53;;;7.30;99.90;;;;;;5063186;28;20025;-85
2021/12/06 11:56:18;;;;;;;9.52;5.05;;;5.30;99.90;;;;;;5050420;28;20135;-85
2021/12/06 11:58:47;;;;;;;8.40;4.53;;;5.50;99.90;;;;;;5046564;28;20066;-84
2021/12/06 12:01:17;;;;;;;8.35;4.50;;;5.50;99.90;;;;;;5060948;28;20021;-84
2021/12/06 12:03:48;;;;;;;8.45;3.95;;;5.50;99.90;;;;;;5050565;28;20021;-86
2021/12/06 12:06:23;;;;;;;9.85;5.22;;;5.50;99.90;;;;;;5051714;28;20040;-85
2021/12/06 12:09:14;;;;;;;9.70;4.50;;;5.30;99.90;;;;;;5046622;28;20317;-83
2021/12/06 12:12:01;;;;;;;12.00;4.97;;;5.30;99.90;;;;;;5059968;28;20032;-87
2021/12/06 12:14:54;;;;;;;7.22;4.05;;;5.20;99.90;;;;;;5053678;28;20025;-82
2021/12/06 12:17:23;;;;;;;6.93;3.67;;;5.20;99.90;;;;;;5044363;28;20040;-82
2021/12/06 12:19:52;;;;;;;7.80;4.45;;;5.20;99.90;;;;;;5048147;28;20033;-79
2021/12/06 12:22:19;;;;;;;8.02;4.88;;;8.00;99.90;;;;;;5050398;28;20067;-82
2021/12/06 12:24:49;;;;;;;7.88;4.50;;;5.10;99.90;;;;;;5051734;28;20021;-82
2021/12/06 12:29:43;;;;;;;15.75;7.53;;;5.00;99.90;;;;;;5048004;28;20033;-82
2021/12/06 12:32:08;;;;;;;12.68;6.85;;;5.00;99.90;;;;;;5047774;28;20025;-87
2021/12/06 12:34:41;;;;;;;14.93;8.25;;;4.90;99.90;;;;;;5049375;28;20032;-85
2021/12/06 12:37:10;;;;;;;13.57;7.63;;;4.90;99.90;;;;;;5053485;28;20041;-84
2021/12/06 12:39:36;;;;;;;14.00;6.80;;;;;;;;;;5050207;28;20029;-80
2021/12/06 12:42:04;;;;;;;10.80;5.60;;;4.80;99.90;;;;;;5061999;28;20494;-84
2021/12/06 12:44:40;;;;;;;10.32;4.90;;;4.70;99.90;;;;;;5044638;28;20071;-84
2021/12/06 12:47:15;;;;;;;9.23;4.63;;;4.70;99.90;;;;;;5045716;28;21024;-84
2021/12/06 12:49:48;;;;;;;6.57;3.92;;;4.80;99.90;;;;;;5048158;28;20033;-82
2021/12/06 12:52:15;;;;;;;9.38;4.50;;;4.70;99.90;;;;;;5048558;28;20029;-84
2021/12/06 12:54:45;;;;;;;7.10;4.05;;;5.80;99.90;;;;;;5052463;28;20037;-83
2021/12/06 12:57:14;;;;;;;5.93;3.63;;;;;;;;;;5062785;28;20037;-84
2021/12/06 12:59:49;;;;;;;8.55;3.95;;;4.50;99.90;;;;;;5046156;28;20048;-84
2021/12/06 13:02:17;;;;;;;7.25;3.80;;;;;;;;;;5049701;28;20026;-84
2021/12/06 13:04:58;;;;;;;5.57;3.10;;;4.40;99.90;;;;;;5047320;28;20475;-84
2021/12/06 13:07:30;;;;;;;9.38;4.28;;;4.40;99.90;;;;;;5053901;28;20116;-82
2021/12/06 13:09:57;;;;;;;8.23;4.20;;;4.30;99.90;;;;;;5050189;28;20112;-87
2021/12/06 13:12:24;;;;;;;7.38;4.38;;;;;;;;;;5055430;28;20028;-79
2021/12/06 13:14:56;;;;;;;12.40;5.18;;;4.30;99.90;;;;;;5064979;28;20048;-82
2021/12/06 13:17:33;;;;;;;10.30;5.35;;;4.30;99.90;;;;;;5063364;28;20024;-82
2021/12/06 13:20:12;;;;;;;10.27;4.93;;;4.40;99.90;;;;;;5055739;28;20025;-84
2021/12/06 13:22:52;;;;;;;12.38;5.50;;;4.40;99.90;;;;;;5056535;28;20020;-82
2021/12/06 13:25:21;;;;;;;7.90;4.60;;;4.50;99.90;;;;;;5053328;28;20083;-82
2021/12/06 13:28:06;;;;;;;7.43;4.13;;;4.40;99.90;;;;;;5056039;28;20291;-82
2021/12/06 13:30:40;;;;;;;7.68;4.05;;;4.30;99.90;;;;;;5046675;28;20033;-86
2021/12/06 13:33:33;;;;;;;7.32;4.32;;;4.40;99.90;;;;;;5051688;28;20047;-81
2021/12/06 13:35:59;;;;;;;8.98;4.75;;;4.70;99.90;;;;;;5053380;28;20295;-82
2021/12/06 13:38:37;;;;;;;11.07;4.45;;;5.90;99.90;;;;;;5053091;28;20097;-81
2021/12/06 13:41:09;;;;;;;9.23;4.97;;;;;;;;;;5066846;28;20029;-83
2021/12/06 13:43:45;;;;;;;9.38;4.47;;;;;;;;;;5043820;28;20059;-82
2021/12/06 13:46:19;;;;;;;7.55;4.75;;;4.70;99.90;;;;;;5052794;28;20476;-86
2021/12/06 13:48:47;;;;;;;9.50;5.15;;;4.70;99.90;;;;;;5062574;28;20028;-82